sensor_id;sensor_type;location;lat;lon;timestamp;pressure;altitude;pressure_sealevel;temperature;humidity
10093;BME280;5085;48.092;11.484;2023-02-21T00:01:34;95584.72;;;4.56;100.00
10093;BME280;5085;48.092;11.484;2023-02-21T00:04:19;95591.91;;;4.55;100.00
10093;BME280;5085;48.092;11.484;2023-02-21T00:07:04;95599.09;;;4.55;100.00
10093;BME280;5085;48.092;11.484;2023-02-21T00:09:49;95588.28;;;4.49;100.00
10093;BME280;5085;48.092;11.484;2023-02-21T00:12:33;95588.75;;;4.46;100.00
10093;BME280;5085;48.092;11.484;2023-02-21T00:15:18;95587.34;;;4.44;100.00
10093;BME280;5085;48.092;11.484;2023-02-21T00:18:02;95585.34;;;4.39;100.00
10093;BME280;5085;48.092;11.484;2023-02-21T00:20:47;95583.78;;;4.32;100.00
10093;BME280;5085;48.092;11.484;2023-02-21T00:23:33;95582.22;;;4.24;100.00
10093;BME280;5085;48.092;11.484;2023-02-21T00:26:19;95580.72;;;4.16;100.00
10093;BME280;5085;48.092;11.484;2023-02-21T00:29:05;95579.34;;;4.07;100.00
10093;BME280;5085;48.092;11.484;2023-02-21T00:31:49;95589.28;;;4.00;100.00
10093;BME280;5085;48.092;11.484;2023-02-21T00:34:35;95581.59;;;3.92;100.00
10093;BME280;5085;48.092;11.484;2023-02-21T00:37:20;95580.84;;;3.85;100.00
10093;BME280;5085;48.092;11.484;2023-02-21T00:40:05;95591.78;;;3.76;100.00
10093;BME280;5085;48.092;11.484;2023-02-21T00:42:50;95586.31;;;3.71;100.00
10093;BME280;5085;48.092;11.484;2023-02-21T00:45:34;95582.88;;;3.64;100.00
10093;BME280;5085;48.092;11.484;2023-02-21T00:48:22;95573.94;;;3.59;100.00
10093;BME280;5085;48.092;11.484;2023-02-21T00:51:07;95581.16;;;3.51;100.00
10093;BME280;5085;48.092;11.484;2023-02-21T00:53:55;95576.94;;;3.44;100.00
10093;BME280;5085;48.092;11.484;2023-02-21T00:56:40;95571.91;;;3.36;100.00
10093;BME280;5085;48.092;11.484;2023-02-21T00:59:24;95572.75;;;3.30;100.00
10093;BME280;5085;48.092;11.484;2023-02-21T01:02:09;95573.66;;;3.23;100.00
10093;BME280;5085;48.092;11.484;2023-02-21T01:04:55;95569.78;;;3.19;100.00
10093;BME280;5085;48.092;11.484;2023-02-21T01:07:39;95568.59;;;3.15;100.00
10093;BME280;5085;48.092;11.484;2023-02-21T01:10:24;95567.59;;;3.10;100.00
10093;BME280;5085;48.092;11.484;2023-02-21T01:13:09;95572.75;;;3.05;100.00
10093;BME280;5085;48.092;11.484;2023-02-21T01:15:54;95569.13;;;2.99;100.00
10093;BME280;5085;48.092;11.484;2023-02-21T01:18:39;95569.97;;;2.93;100.00
10093;BME280;5085;48.092;11.484;2023-02-21T01:21:24;95567.97;;;2.88;100.00
10093;BME280;5085;48.092;11.484;2023-02-21T01:24:11;95557.16;;;2.83;100.00
10093;BME280;5085;48.092;11.484;2023-02-21T01:26:57;95557.59;;;2.80;100.00
10093;BME280;5085;48.092;11.484;2023-02-21T01:29:48;95551.91;;;2.77;100.00
10093;BME280;5085;48.092;11.484;2023-02-21T01:32:33;95562.75;;;2.75;100.00
10093;BME280;5085;48.092;11.484;2023-02-21T01:35:19;95556.22;;;2.71;100.00
10093;BME280;5085;48.092;11.484;2023-02-21T01:38:04;95545.19;;;2.67;100.00
10093;BME280;5085;48.092;11.484;2023-02-21T01:40:49;95541.56;;;2.62;100.00
10093;BME280;5085;48.092;11.484;2023-02-21T01:43:34;95545.03;;;2.62;100.00
10093;BME280;5085;48.092;11.484;2023-02-21T01:46:19;95556.13;;;2.59;100.00
10093;BME280;5085;48.092;11.484;2023-02-21T01:49:10;95544.28;;;2.55;100.00
10093;BME280;5085;48.092;11.484;2023-02-21T01:51:56;95543.66;;;2.53;100.00
10093;BME280;5085;48.092;11.484;2023-02-21T01:54:48;95545.94;;;2.49;100.00
10093;BME280;5085;48.092;11.484;2023-02-21T01:57:34;95539.22;;;2.47;100.00
10093;BME280;5085;48.092;11.484;2023-02-21T02:00:20;95534.53;;;2.42;100.00
10093;BME280;5085;48.092;11.484;2023-02-21T02:03:07;95529.66;;;2.39;100.00
10093;BME280;5085;48.092;11.484;2023-02-21T02:05:59;95528.22;;;2.37;100.00
10093;BME280;5085;48.092;11.484;2023-02-21T02:08:44;95531.50;;;2.32;100.00
10093;BME280;5085;48.092;11.484;2023-02-21T02:21:01;95517.72;;;2.17;100.00
10093;BME280;5085;48.092;11.484;2023-02-21T02:32:30;95515.25;;;2.15;100.00
10093;BME280;5085;48.092;11.484;2023-02-21T02:35:10;95509.94;;;2.15;100.00
10093;BME280;5085;48.092;11.484;2023-02-21T02:38:00;95515.06;;;2.17;100.00
10093;BME280;5085;48.092;11.484;2023-02-21T02:43:29;95513.84;;;2.13;100.00
10093;BME280;5085;48.092;11.484;2023-02-21T02:46:04;95510.81;;;2.09;100.00
10093;BME280;5085;48.092;11.484;2023-02-21T02:49:08;95514.69;;;2.07;100.00
10093;BME280;5085;48.092;11.484;2023-02-21T02:51:35;95511.63;;;2.03;100.00
10093;BME280;5085;48.092;11.484;2023-02-21T02:54:03;95508.00;;;1.97;100.00
10093;BME280;5085;48.092;11.484;2023-02-21T02:56:30;95503.91;;;1.95;100.00
10093;BME280;5085;48.092;11.484;2023-02-21T03:01:51;95498.44;;;1.90;100.00
10093;BME280;5085;48.092;11.484;2023-02-21T03:04:47;95505.19;;;1.86;100.00
10093;BME280;5085;48.092;11.484;2023-02-21T03:12:51;95502.97;;;1.76;100.00
10093;BME280;5085;48.092;11.484;2023-02-21T03:15:39;95506.03;;;1.73;100.00
10093;BME280;5085;48.092;11.484;2023-02-21T03:18:15;95505.66;;;1.69;100.00
10093;BME280;5085;48.092;11.484;2023-02-21T03:20:45;95506.28;;;1.65;100.00
10093;BME280;5085;48.092;11.484;2023-02-21T03:23:17;95506.91;;;1.60;100.00
10093;BME280;5085;48.092;11.484;2023-02-21T03:25:45;95515.09;;;1.59;100.00
10093;BME280;5085;48.092;11.484;2023-02-21T03:28:14;95510.81;;;1.58;100.00
10093;BME280;5085;48.092;11.484;2023-02-21T03:30:45;95506.94;;;1.54;100.00
10093;BME280;5085;48.092;11.484;2023-02-21T03:33:13;95517.16;;;1.50;100.00
10093;BME280;5085;48.092;11.484;2023-02-21T03:35:39;95512.88;;;1.49;100.00
10093;BME280;5085;48.092;11.484;2023-02-21T03:38:06;95519.00;;;1.49;100.00
10093;BME280;5085;48.092;11.484;2023-02-21T03:40:32;95512.25;;;1.47;100.00
10093;BME280;5085;48.092;11.484;2023-02-21T03:43:01;95514.50;;;1.50;100.00
10093;BME280;5085;48.092;11.484;2023-02-21T03:45:33;95510.41;;;1.47;100.00
10093;BME280;5085;48.092;11.484;2023-02-21T03:48:12;95503.47;;;1.46;100.00
10093;BME280;5085;48.092;11.484;2023-02-21T03:50:40;95506.72;;;1.48;100.00
10093;BME280;5085;48.092;11.484;2023-02-21T03:53:06;95509.59;;;1.47;100.00
10093;BME280;5085;48.092;11.484;2023-02-21T03:55:32;95508.16;;;1.44;100.00
10093;BME280;5085;48.092;11.484;2023-02-21T03:58:02;95502.50;;;1.41;100.00
10093;BME280;5085;48.092;11.484;2023-02-21T04:00:36;95510.63;;;1.39;100.00
10093;BME280;5085;48.092;11.484;2023-02-21T04:03:02;95506.38;;;1.38;100.00
10093;BME280;5085;48.092;11.484;2023-02-21T04:05:37;95512.69;;;1.37;100.00
10093;BME280;5085;48.092;11.484;2023-02-21T04:08:04;95510.44;;;1.34;100.00
10093;BME280;5085;48.092;11.484;2023-02-21T04:10:31;95507.78;;;1.34;100.00
10093;BME280;5085;48.092;11.484;2023-02-21T04:12:58;95514.13;;;1.33;100.00
10093;BME280;5085;48.092;11.484;2023-02-21T04:15:24;95510.84;;;1.31;100.00
10093;BME280;5085;48.092;11.484;2023-02-21T04:17:50;95516.38;;;1.30;100.00
10093;BME280;5085;48.092;11.484;2023-02-21T04:20:17;95513.13;;;1.28;100.00
10093;BME280;5085;48.092;11.484;2023-02-21T04:22:50;95515.97;;;1.26;100.00
10093;BME280;5085;48.092;11.484;2023-02-21T04:25:20;95518.84;;;1.24;100.00
10093;BME280;5085;48.092;11.484;2023-02-21T04:27:50;95515.38;;;1.24;100.00
10093;BME280;5085;48.092;11.484;2023-02-21T04:30:16;95519.25;;;1.21;100.00
10093;BME280;5085;48.092;11.484;2023-02-21T04:32:43;95510.47;;;1.21;100.00
10093;BME280;5085;48.092;11.484;2023-02-21T04:35:13;95512.09;;;1.22;100.00
10093;BME280;5085;48.092;11.484;2023-02-21T04:37:39;95504.38;;;1.20;100.00
10093;BME280;5085;48.092;11.484;2023-02-21T04:40:06;95510.47;;;1.21;100.00
10093;BME280;5085;48.092;11.484;2023-02-21T04:42:34;95509.44;;;1.22;100.00
10093;BME280;5085;48.092;11.484;2023-02-21T04:45:00;95507.59;;;1.22;100.00
10093;BME280;5085;48.092;11.484;2023-02-21T04:47:26;95509.84;;;1.25;100.00
10093;BME280;5085;48.092;11.484;2023-02-21T04:49:52;95506.59;;;1.30;100.00
10093;BME280;5085;48.092;11.484;2023-02-21T04:52:18;95504.13;;;1.35;100.00
10093;BME280;5085;48.092;11.484;2023-02-21T04:54:50;95504.53;;;1.39;100.00
10093;BME280;5085;48.092;11.484;2023-02-21T04:57:16;95505.50;;;1.44;100.00
10093;BME280;5085;48.092;11.484;2023-02-21T04:59:42;95503.47;;;1.46;100.00
10093;BME280;5085;48.092;11.484;2023-02-21T05:02:08;95507.94;;;1.53;100.00
10093;BME280;5085;48.092;11.484;2023-02-21T05:04:38;95493.84;;;1.59;100.00
10093;BME280;5085;48.092;11.484;2023-02-21T05:07:04;95490.56;;;1.63;100.00
10093;BME280;5085;48.092;11.484;2023-02-21T05:09:30;95495.84;;;1.70;100.00
10093;BME280;5085;48.092;11.484;2023-02-21T05:11:56;95488.28;;;1.73;100.00
10093;BME280;5085;48.092;11.484;2023-02-21T05:14:22;95480.72;;;1.77;100.00
10093;BME280;5085;48.092;11.484;2023-02-21T05:16:49;95481.91;;;1.81;100.00
10093;BME280;5085;48.092;11.484;2023-02-21T05:19:22;95477.81;;;1.85;100.00
10093;BME280;5085;48.092;11.484;2023-02-21T05:21:56;95481.91;;;1.88;100.00
10093;BME280;5085;48.092;11.484;2023-02-21T05:24:23;95479.41;;;1.93;100.00
10093;BME280;5085;48.092;11.484;2023-02-21T05:26:50;95482.66;;;1.95;100.00
10093;BME280;5085;48.092;11.484;2023-02-21T05:29:16;95477.34;;;1.95;100.00
10093;BME280;5085;48.092;11.484;2023-02-21T05:31:44;95483.06;;;1.98;100.00
10093;BME280;5085;48.092;11.484;2023-02-21T05:34:10;95473.47;;;1.97;100.00
10093;BME280;5085;48.092;11.484;2023-02-21T05:36:36;95477.75;;;1.98;100.00
10093;BME280;5085;48.092;11.484;2023-02-21T05:39:03;95477.34;;;2.02;100.00
10093;BME280;5085;48.092;11.484;2023-02-21T05:41:29;95478.97;;;2.03;100.00
10093;BME280;5085;48.092;11.484;2023-02-21T05:43:56;95472.03;;;2.02;100.00
10093;BME280;5085;48.092;11.484;2023-02-21T05:46:24;95480.56;;;2.04;100.00
10093;BME280;5085;48.092;11.484;2023-02-21T05:48:51;95478.53;;;2.06;100.00
10093;BME280;5085;48.092;11.484;2023-02-21T05:51:22;95478.13;;;2.09;100.00
10093;BME280;5085;48.092;11.484;2023-02-21T05:53:48;95473.63;;;2.09;100.00
10093;BME280;5085;48.092;11.484;2023-02-21T05:56:16;95471.78;;;2.10;100.00
10093;BME280;5085;48.092;11.484;2023-02-21T05:58:42;95468.31;;;2.09;100.00
10093;BME280;5085;48.092;11.484;2023-02-21T06:01:09;95467.69;;;2.07;100.00
10093;BME280;5085;48.092;11.484;2023-02-21T06:03:35;95472.00;;;2.08;100.00
10093;BME280;5085;48.092;11.484;2023-02-21T06:06:01;95471.78;;;2.10;100.00
10093;BME280;5085;48.092;11.484;2023-02-21T06:08:27;95469.50;;;2.13;100.00
10093;BME280;5085;48.092;11.484;2023-02-21T06:10:53;95469.06;;;2.16;100.00
10093;BME280;5085;48.092;11.484;2023-02-21T06:13:19;95475.81;;;2.19;100.00
10093;BME280;5085;48.092;11.484;2023-02-21T06:15:45;95475.16;;;2.23;100.00
10093;BME280;5085;48.092;11.484;2023-02-21T06:18:15;95481.09;;;2.25;100.00
10093;BME280;5085;48.092;11.484;2023-02-21T06:20:42;95472.91;;;2.27;100.00
10093;BME280;5085;48.092;11.484;2023-02-21T06:23:09;95476.38;;;2.28;100.00
10093;BME280;5085;48.092;11.484;2023-02-21T06:25:35;95478.19;;;2.34;100.00
10093;BME280;5085;48.092;11.484;2023-02-21T06:28:01;95481.59;;;2.41;100.00
10093;BME280;5085;48.092;11.484;2023-02-21T06:30:27;95483.19;;;2.48;100.00
10093;BME280;5085;48.092;11.484;2023-02-21T06:32:53;95474.13;;;2.56;100.00
10093;BME280;5085;48.092;11.484;2023-02-21T06:35:19;95472.44;;;2.62;100.00
10093;BME280;5085;48.092;11.484;2023-02-21T06:37:45;95478.16;;;2.65;100.00
10093;BME280;5085;48.092;11.484;2023-02-21T06:40:11;95477.50;;;2.70;100.00
10093;BME280;5085;48.092;11.484;2023-02-21T06:42:37;95476.03;;;2.74;100.00
10093;BME280;5085;48.092;11.484;2023-02-21T06:45:03;95482.13;;;2.81;100.00
10093;BME280;5085;48.092;11.484;2023-02-21T06:47:30;95491.88;;;2.87;100.00
10093;BME280;5085;48.092;11.484;2023-02-21T06:49:56;95480.59;;;2.92;100.00
10093;BME280;5085;48.092;11.484;2023-02-21T06:52:22;95492.22;;;2.97;100.00
10093;BME280;5085;48.092;11.484;2023-02-21T06:54:51;95483.59;;;3.02;100.00
10093;BME280;5085;48.092;11.484;2023-02-21T06:57:17;95489.47;;;3.04;100.00
10093;BME280;5085;48.092;11.484;2023-02-21T06:59:44;95495.63;;;3.05;100.00
10093;BME280;5085;48.092;11.484;2023-02-21T07:02:17;95497.63;;;3.09;100.00
10093;BME280;5085;48.092;11.484;2023-02-21T07:04:45;95495.56;;;3.11;100.00
10093;BME280;5085;48.092;11.484;2023-02-21T07:07:11;95504.75;;;3.15;100.00
10093;BME280;5085;48.092;11.484;2023-02-21T07:09:38;95509.97;;;3.22;100.00
10093;BME280;5085;48.092;11.484;2023-02-21T07:12:10;95496.63;;;3.29;100.00
10093;BME280;5085;48.092;11.484;2023-02-21T07:14:36;95516.38;;;3.39;100.00
10093;BME280;5085;48.092;11.484;2023-02-21T07:17:03;95511.38;;;3.49;100.00
10093;BME280;5085;48.092;11.484;2023-02-21T07:19:29;95507.97;;;3.61;100.00
10093;BME280;5085;48.092;11.484;2023-02-21T07:21:55;95500.84;;;3.73;100.00
10093;BME280;5085;48.092;11.484;2023-02-21T07:24:21;95503.16;;;3.88;100.00
10093;BME280;5085;48.092;11.484;2023-02-21T07:26:47;95502.28;;;4.24;100.00
10093;BME280;5085;48.092;11.484;2023-02-21T07:29:13;95507.50;;;5.03;100.00
10093;BME280;5085;48.092;11.484;2023-02-21T07:31:39;95509.19;;;6.03;100.00
10093;BME280;5085;48.092;11.484;2023-02-21T07:34:05;95502.00;;;7.06;98.01
10093;BME280;5085;48.092;11.484;2023-02-21T07:36:31;95503.47;;;8.08;90.08
10093;BME280;5085;48.092;11.484;2023-02-21T07:38:57;95505.56;;;9.04;80.02
10093;BME280;5085;48.092;11.484;2023-02-21T07:41:23;95500.81;;;9.90;68.98
10093;BME280;5085;48.092;11.484;2023-02-21T07:43:50;95503.31;;;10.75;64.02
10093;BME280;5085;48.092;11.484;2023-02-21T07:46:16;95505.78;;;11.53;60.84
10093;BME280;5085;48.092;11.484;2023-02-21T07:48:42;95507.63;;;12.04;58.11
10093;BME280;5085;48.092;11.484;2023-02-21T07:51:09;95509.34;;;12.54;55.41
10093;BME280;5085;48.092;11.484;2023-02-21T07:53:35;95508.69;;;13.17;53.54
10093;BME280;5085;48.092;11.484;2023-02-21T07:56:02;95515.84;;;13.71;51.33
10093;BME280;5085;48.092;11.484;2023-02-21T07:58:28;95522.66;;;14.21;48.82
10093;BME280;5085;48.092;11.484;2023-02-21T08:00:54;95522.78;;;14.83;46.94
10093;BME280;5085;48.092;11.484;2023-02-21T08:03:20;95524.22;;;15.51;45.69
10093;BME280;5085;48.092;11.484;2023-02-21T08:05:47;95521.69;;;16.20;44.36
10093;BME280;5085;48.092;11.484;2023-02-21T08:08:14;95520.13;;;16.74;42.33
10093;BME280;5085;48.092;11.484;2023-02-21T08:10:40;95520.22;;;17.19;41.45
10093;BME280;5085;48.092;11.484;2023-02-21T08:13:06;95521.41;;;17.63;39.68
10093;BME280;5085;48.092;11.484;2023-02-21T08:15:32;95529.69;;;18.03;39.57
10093;BME280;5085;48.092;11.484;2023-02-21T08:17:58;95522.69;;;18.10;38.86
10093;BME280;5085;48.092;11.484;2023-02-21T08:20:24;95521.88;;;18.41;37.97
10093;BME280;5085;48.092;11.484;2023-02-21T08:22:50;95517.31;;;18.67;37.36
10093;BME280;5085;48.092;11.484;2023-02-21T08:25:16;95519.06;;;19.12;36.82
10093;BME280;5085;48.092;11.484;2023-02-21T08:27:42;95529.38;;;19.67;36.09
10093;BME280;5085;48.092;11.484;2023-02-21T08:30:11;95532.50;;;20.12;35.09
10093;BME280;5085;48.092;11.484;2023-02-21T08:32:39;95520.50;;;20.60;36.61
10093;BME280;5085;48.092;11.484;2023-02-21T08:35:05;95522.81;;;21.09;36.74
10093;BME280;5085;48.092;11.484;2023-02-21T08:37:32;95530.00;;;21.43;35.56
10093;BME280;5085;48.092;11.484;2023-02-21T08:40:01;95526.59;;;21.67;33.57
10093;BME280;5085;48.092;11.484;2023-02-21T08:42:27;95532.88;;;21.88;33.35
10093;BME280;5085;48.092;11.484;2023-02-21T08:44:56;95526.28;;;22.02;32.56
10093;BME280;5085;48.092;11.484;2023-02-21T08:47:23;95527.47;;;22.13;32.26
10093;BME280;5085;48.092;11.484;2023-02-21T08:49:49;95533.38;;;22.36;32.51
10093;BME280;5085;48.092;11.484;2023-02-21T08:52:16;95532.78;;;22.42;31.49
10093;BME280;5085;48.092;11.484;2023-02-21T08:54:43;95532.78;;;22.42;30.97
10093;BME280;5085;48.092;11.484;2023-02-21T08:57:09;95535.44;;;22.39;30.96
10093;BME280;5085;48.092;11.484;2023-02-21T08:59:39;95535.50;;;22.18;30.79
10093;BME280;5085;48.092;11.484;2023-02-21T09:02:22;95543.75;;;21.97;30.97
10093;BME280;5085;48.092;11.484;2023-02-21T09:04:50;95542.41;;;21.82;31.39
10093;BME280;5085;48.092;11.484;2023-02-21T09:07:18;95530.78;;;21.85;31.08
10093;BME280;5085;48.092;11.484;2023-02-21T09:09:45;95533.38;;;22.03;31.23
10093;BME280;5085;48.092;11.484;2023-02-21T09:12:11;95538.75;;;22.44;31.07
10093;BME280;5085;48.092;11.484;2023-02-21T09:14:40;95534.31;;;22.77;30.33
10093;BME280;5085;48.092;11.484;2023-02-21T09:17:08;95525.69;;;23.11;30.33
10093;BME280;5085;48.092;11.484;2023-02-21T09:19:35;95530.06;;;23.40;29.17
10093;BME280;5085;48.092;11.484;2023-02-21T09:22:01;95532.78;;;23.53;28.89
10093;BME280;5085;48.092;11.484;2023-02-21T09:24:35;95538.88;;;23.71;28.86
10093;BME280;5085;48.092;11.484;2023-02-21T09:27:02;95535.16;;;23.79;28.01
10093;BME280;5085;48.092;11.484;2023-02-21T09:29:35;95538.06;;;23.98;28.43
10093;BME280;5085;48.092;11.484;2023-02-21T09:32:02;95528.38;;;24.32;27.74
10093;BME280;5085;48.092;11.484;2023-02-21T09:34:40;95526.84;;;24.47;27.46
10093;BME280;5085;48.092;11.484;2023-02-21T09:37:07;95533.59;;;24.65;26.91
10093;BME280;5085;48.092;11.484;2023-02-21T09:39:36;95533.75;;;24.88;26.75
10093;BME280;5085;48.092;11.484;2023-02-21T09:42:04;95529.97;;;25.09;26.04
10093;BME280;5085;48.092;11.484;2023-02-21T09:44:30;95515.50;;;25.31;26.22
10093;BME280;5085;48.092;11.484;2023-02-21T09:47:04;95525.00;;;25.34;26.37
10093;BME280;5085;48.092;11.484;2023-02-21T09:49:37;95535.69;;;25.35;26.00
10093;BME280;5085;48.092;11.484;2023-02-21T09:52:06;95527.41;;;25.35;25.86
10093;BME280;5085;48.092;11.484;2023-02-21T09:54:43;95521.69;;;25.44;26.14
10093;BME280;5085;48.092;11.484;2023-02-21T09:57:13;95525.78;;;25.69;24.89
10093;BME280;5085;48.092;11.484;2023-02-21T09:59:40;95532.00;;;26.02;25.20
10093;BME280;5085;48.092;11.484;2023-02-21T10:07:52;95514.66;;;26.43;24.31
10093;BME280;5085;48.092;11.484;2023-02-21T10:10:26;95523.03;;;26.70;24.05
10093;BME280;5085;48.092;11.484;2023-02-21T10:16:16;95518.59;;;27.38;23.58
10093;BME280;5085;48.092;11.484;2023-02-21T10:21:34;95510.81;;;28.07;22.91
10093;BME280;5085;48.092;11.484;2023-02-21T10:24:27;95510.59;;;28.23;22.14
10093;BME280;5085;48.092;11.484;2023-02-21T10:27:05;95516.13;;;28.57;22.04
10093;BME280;5085;48.092;11.484;2023-02-21T10:30:04;95511.50;;;28.68;21.59
10093;BME280;5085;48.092;11.484;2023-02-21T10:32:35;95507.28;;;29.36;21.47
10093;BME280;5085;48.092;11.484;2023-02-21T10:35:02;95519.22;;;29.48;21.26
10093;BME280;5085;48.092;11.484;2023-02-21T10:37:45;95514.28;;;29.82;20.90
10093;BME280;5085;48.092;11.484;2023-02-21T10:45:41;95512.25;;;30.87;20.40
10093;BME280;5085;48.092;11.484;2023-02-21T10:48:10;95517.81;;;31.16;20.37
10093;BME280;5085;48.092;11.484;2023-02-21T10:50:42;95505.09;;;31.33;19.56
10093;BME280;5085;48.092;11.484;2023-02-21T10:53:26;95500.66;;;31.64;19.67
10093;BME280;5085;48.092;11.484;2023-02-21T11:04:09;95489.59;;;31.07;19.60
10093;BME280;5085;48.092;11.484;2023-02-21T11:07:05;95497.88;;;30.71;20.58
10093;BME280;5085;48.092;11.484;2023-02-21T11:12:16;95484.72;;;30.32;20.11
10093;BME280;5085;48.092;11.484;2023-02-21T11:15:01;95482.31;;;30.17;20.65
10093;BME280;5085;48.092;11.484;2023-02-21T11:17:29;95479.47;;;30.06;20.53
10093;BME280;5085;48.092;11.484;2023-02-21T11:20:09;95475.16;;;30.12;21.12
10093;BME280;5085;48.092;11.484;2023-02-21T11:22:42;95473.06;;;29.95;20.80
10093;BME280;5085;48.092;11.484;2023-02-21T11:25:31;95463.13;;;29.79;20.45
10093;BME280;5085;48.092;11.484;2023-02-21T11:28:01;95459.94;;;29.81;20.99
10093;BME280;5085;48.092;11.484;2023-02-21T11:30:33;95454.41;;;29.84;21.09
10093;BME280;5085;48.092;11.484;2023-02-21T11:33:01;95448.84;;;29.84;21.01
10093;BME280;5085;48.092;11.484;2023-02-21T11:35:31;95450.47;;;29.93;21.55
10093;BME280;5085;48.092;11.484;2023-02-21T11:38:00;95449.25;;;29.83;21.02
10093;BME280;5085;48.092;11.484;2023-02-21T11:43:21;95440.19;;;30.00;21.06
10093;BME280;5085;48.092;11.484;2023-02-21T11:46:02;95433.47;;;30.12;21.05
10093;BME280;5085;48.092;11.484;2023-02-21T11:54:05;95422.84;;;30.93;20.29
10093;BME280;5085;48.092;11.484;2023-02-21T12:02:24;95413.66;;;31.10;19.91
10093;BME280;5085;48.092;11.484;2023-02-21T12:05:33;95404.38;;;31.56;19.57
10093;BME280;5085;48.092;11.484;2023-02-21T12:14:12;95397.94;;;31.84;18.90
10093;BME280;5085;48.092;11.484;2023-02-21T12:17:23;95393.78;;;32.14;18.75
10093;BME280;5085;48.092;11.484;2023-02-21T12:20:17;95397.50;;;32.55;18.54
10093;BME280;5085;48.092;11.484;2023-02-21T12:23:12;95391.16;;;32.96;18.74
10093;BME280;5085;48.092;11.484;2023-02-21T12:25:59;95383.50;;;33.07;18.28
10093;BME280;5085;48.092;11.484;2023-02-21T12:28:31;95381.88;;;33.10;17.78
10093;BME280;5085;48.092;11.484;2023-02-21T12:34:12;95369.75;;;33.24;18.23
10093;BME280;5085;48.092;11.484;2023-02-21T12:37:13;95362.09;;;33.31;17.55
10093;BME280;5085;48.092;11.484;2023-02-21T12:40:00;95353.19;;;33.74;17.36
10093;BME280;5085;48.092;11.484;2023-02-21T12:42:55;95352.72;;;34.37;17.00
10093;BME280;5085;48.092;11.484;2023-02-21T12:45:49;95350.69;;;34.38;17.31
10093;BME280;5085;48.092;11.484;2023-02-21T12:48:30;95343.25;;;34.27;17.89
10093;BME280;5085;48.092;11.484;2023-02-21T12:51:10;95335.88;;;34.14;17.60
10093;BME280;5085;48.092;11.484;2023-02-21T12:53:44;95333.44;;;33.89;17.81
10093;BME280;5085;48.092;11.484;2023-02-21T12:56:22;95332.16;;;33.66;18.04
10093;BME280;5085;48.092;11.484;2023-02-21T12:59:07;95329.63;;;33.45;18.08
10093;BME280;5085;48.092;11.484;2023-02-21T13:06:56;95320.41;;;32.76;18.22
10093;BME280;5085;48.092;11.484;2023-02-21T13:09:29;95318.53;;;32.14;19.09
10093;BME280;5085;48.092;11.484;2023-02-21T13:12:03;95311.91;;;31.90;19.67
10093;BME280;5085;48.092;11.484;2023-02-21T13:14:50;95298.69;;;31.27;19.71
10093;BME280;5085;48.092;11.484;2023-02-21T13:17:18;95302.78;;;30.94;20.29
10093;BME280;5085;48.092;11.484;2023-02-21T13:20:13;95288.13;;;29.72;20.63
10093;BME280;5085;48.092;11.484;2023-02-21T13:26:30;95289.34;;;30.57;20.62
10093;BME280;5085;48.092;11.484;2023-02-21T13:28:59;95274.22;;;30.83;20.53
10093;BME280;5085;48.092;11.484;2023-02-21T13:31:33;95279.63;;;31.22;19.92
10093;BME280;5085;48.092;11.484;2023-02-21T13:34:09;95274.72;;;31.55;20.22
10093;BME280;5085;48.092;11.484;2023-02-21T13:36:42;95268.19;;;31.79;19.79
10093;BME280;5085;48.092;11.484;2023-02-21T13:39:18;95269.09;;;31.66;19.80
10093;BME280;5085;48.092;11.484;2023-02-21T13:41:54;95269.22;;;31.44;20.30
10093;BME280;5085;48.092;11.484;2023-02-21T13:44:28;95266.97;;;31.07;20.37
10093;BME280;5085;48.092;11.484;2023-02-21T13:46:58;95262.69;;;30.84;21.02
10093;BME280;5085;48.092;11.484;2023-02-21T13:49:50;95253.16;;;30.71;20.85
10093;BME280;5085;48.092;11.484;2023-02-21T14:03:00;95236.19;;;30.30;21.74
10093;BME280;5085;48.092;11.484;2023-02-21T14:08:31;95238.50;;;30.53;21.42
10093;BME280;5085;48.092;11.484;2023-02-21T14:13:44;95223.47;;;30.32;21.69
10093;BME280;5085;48.092;11.484;2023-02-21T14:19:00;95214.63;;;30.62;20.96
10093;BME280;5085;48.092;11.484;2023-02-21T14:24:21;95210.34;;;29.54;22.00
10093;BME280;5085;48.092;11.484;2023-02-21T14:29:38;95201.09;;;28.97;22.33
10093;BME280;5085;48.092;11.484;2023-02-21T14:34:40;95192.00;;;28.20;23.07
10093;BME280;5085;48.092;11.484;2023-02-21T14:48:56;95177.69;;;22.07;30.31
10093;BME280;5085;48.092;11.484;2023-02-21T15:02:47;95158.94;;;19.19;36.21
10093;BME280;5085;48.092;11.484;2023-02-21T15:05:26;95154.56;;;18.88;36.05
10093;BME280;5085;48.092;11.484;2023-02-21T15:08:11;95148.03;;;18.63;36.69
10093;BME280;5085;48.092;11.484;2023-02-21T15:10:42;95149.19;;;18.54;36.68
10093;BME280;5085;48.092;11.484;2023-02-21T15:13:24;95158.19;;;18.45;36.88
10093;BME280;5085;48.092;11.484;2023-02-21T15:15:57;95146.69;;;18.31;37.96
10093;BME280;5085;48.092;11.484;2023-02-21T15:18:26;95143.31;;;18.08;38.10
10093;BME280;5085;48.092;11.484;2023-02-21T15:21:12;95145.41;;;17.77;38.68
10093;BME280;5085;48.092;11.484;2023-02-21T15:23:45;95138.59;;;17.31;39.13
10093;BME280;5085;48.092;11.484;2023-02-21T15:29:08;95130.69;;;16.72;40.87
10093;BME280;5085;48.092;11.484;2023-02-21T15:31:43;95128.63;;;16.46;41.82
10093;BME280;5085;48.092;11.484;2023-02-21T15:34:22;95129.78;;;16.23;41.97
10093;BME280;5085;48.092;11.484;2023-02-21T15:37:01;95136.72;;;16.07;43.15
10093;BME280;5085;48.092;11.484;2023-02-21T15:39:32;95131.16;;;15.89;43.80
10093;BME280;5085;48.092;11.484;2023-02-21T15:42:03;95121.25;;;15.71;44.58
10093;BME280;5085;48.092;11.484;2023-02-21T15:44:46;95122.66;;;15.55;45.13
10093;BME280;5085;48.092;11.484;2023-02-21T15:47:19;95116.28;;;15.37;45.79
10093;BME280;5085;48.092;11.484;2023-02-21T15:49:57;95120.44;;;15.20;46.10
10093;BME280;5085;48.092;11.484;2023-02-21T15:57:45;95110.81;;;14.73;46.75
10093;BME280;5085;48.092;11.484;2023-02-21T16:00:47;95112.22;;;14.57;47.85
10093;BME280;5085;48.092;11.484;2023-02-21T16:06:23;95102.53;;;14.23;48.72